createdAt,value
2018-06-11T00:02:23.280Z,19.00
2018-06-11T00:04:52.585Z,19.00
2018-06-11T00:07:21.978Z,18.90
2018-06-11T00:09:51.264Z,19.10
2018-06-11T00:12:20.546Z,19.10
2018-06-11T00:14:49.967Z,19.00
2018-06-11T00:17:20.168Z,19.00
2018-06-11T00:19:49.616Z,19.00
2018-06-11T00:22:18.938Z,19.00
2018-06-11T00:24:48.338Z,19.00
2018-06-11T00:27:17.770Z,19.00
2018-06-11T00:29:47.012Z,18.90
2018-06-11T00:32:16.259Z,18.90
2018-06-11T00:34:45.463Z,18.80
2018-06-11T00:39:43.520Z,18.70
2018-06-11T00:42:12.816Z,18.80
2018-06-11T00:47:11.006Z,18.80
2018-06-11T00:52:09.132Z,18.70
2018-06-11T00:54:38.607Z,18.70
2018-06-11T00:57:07.858Z,18.60
2018-06-11T00:59:37.180Z,18.60
2018-06-11T01:02:06.580Z,18.60
2018-06-11T01:04:35.911Z,18.60
2018-06-11T01:07:05.147Z,18.60
2018-06-11T01:09:34.438Z,18.60
2018-06-11T01:12:03.774Z,18.50
2018-06-11T01:14:33.123Z,18.50
2018-06-11T01:17:02.880Z,18.40
2018-06-11T01:19:32.244Z,18.30
2018-06-11T01:22:01.489Z,18.40
2018-06-11T01:24:30.863Z,18.40
2018-06-11T01:27:00.123Z,18.40
2018-06-11T01:31:58.224Z,18.40
2018-06-11T01:34:27.455Z,18.40
2018-06-11T01:36:56.835Z,18.40
2018-06-11T01:39:26.097Z,18.40
2018-06-11T01:41:55.393Z,18.40
2018-06-11T01:44:24.625Z,18.30
2018-06-11T01:46:53.897Z,18.40
2018-06-11T01:49:23.267Z,18.30
2018-06-11T01:51:52.631Z,18.30
2018-06-11T01:54:21.927Z,18.20
2018-06-11T01:56:51.227Z,18.20
2018-06-11T01:59:20.475Z,18.20
2018-06-11T02:01:49.801Z,18.20
2018-06-11T02:04:19.057Z,18.20
2018-06-11T02:06:48.321Z,18.20
2018-06-11T02:09:17.568Z,18.30
2018-06-11T02:11:46.914Z,18.30
2018-06-11T02:16:45.013Z,18.10
2018-06-11T02:19:14.263Z,18.10
2018-06-11T02:21:43.596Z,18.10
2018-06-11T02:24:12.848Z,18.10
2018-06-11T02:26:42.138Z,18.10
2018-06-11T02:29:11.434Z,18.10
2018-06-11T02:31:40.869Z,18.10
2018-06-11T02:34:10.138Z,18.10
2018-06-11T02:36:39.388Z,18.10
2018-06-11T02:39:09.248Z,18.20
2018-06-11T02:41:38.665Z,18.20
2018-06-11T02:44:07.889Z,18.20
2018-06-11T02:46:37.170Z,18.20
2018-06-11T02:49:06.578Z,18.10
2018-06-11T02:51:35.857Z,18.10
2018-06-11T02:54:05.094Z,18.10
2018-06-11T02:56:34.398Z,18.00
2018-06-11T02:59:04.474Z,18.00
2018-06-11T03:01:33.782Z,18.10
2018-06-11T03:04:03.171Z,18.00
2018-06-11T03:06:32.422Z,18.00
2018-06-11T03:09:01.784Z,18.10
2018-06-11T03:11:31.060Z,18.10
2018-06-11T03:14:00.364Z,18.10
2018-06-11T03:16:29.623Z,18.10
2018-06-11T03:21:27.718Z,18.10
2018-06-11T03:23:57.055Z,18.10
2018-06-11T03:26:26.280Z,18.10
2018-06-11T03:28:55.524Z,18.00
2018-06-11T03:33:53.626Z,18.10
2018-06-11T03:36:22.909Z,17.90
2018-06-11T03:38:52.286Z,17.90
2018-06-11T03:41:21.578Z,17.90
2018-06-11T03:43:50.868Z,17.90
2018-06-11T03:46:20.115Z,17.90
2018-06-11T03:48:49.371Z,17.90
2018-06-11T03:51:18.672Z,17.90
2018-06-11T03:53:47.935Z,17.90
2018-06-11T03:56:17.175Z,17.90
2018-06-11T03:58:46.541Z,17.90
2018-06-11T04:01:15.809Z,17.90
2018-06-11T04:03:45.053Z,18.00
2018-06-11T04:06:14.387Z,17.80
2018-06-11T04:08:43.682Z,17.90
2018-06-11T04:11:12.962Z,17.80
2018-06-11T04:13:42.195Z,17.90
2018-06-11T04:16:12.454Z,17.90
2018-06-11T04:18:41.704Z,17.90
2018-06-11T04:21:10.984Z,18.10
2018-06-11T04:23:40.286Z,18.20
2018-06-11T04:26:09.574Z,18.10
2018-06-11T04:28:38.846Z,18.00
2018-06-11T04:31:08.119Z,17.90
2018-06-11T04:33:37.387Z,17.90
2018-06-11T04:36:06.765Z,17.90
2018-06-11T04:38:36.028Z,17.80
2018-06-11T04:43:34.172Z,17.90
2018-06-11T04:46:03.479Z,17.90
2018-06-11T04:48:32.837Z,18.00
2018-06-11T04:51:02.175Z,18.10
2018-06-11T04:53:31.492Z,18.10
2018-06-11T04:56:00.775Z,18.30
2018-06-11T04:58:30.036Z,18.30
2018-06-11T05:00:59.557Z,18.20
2018-06-11T05:03:28.898Z,18.20
2018-06-11T05:05:58.250Z,18.10
2018-06-11T05:08:27.549Z,18.00
2018-06-11T05:13:25.666Z,18.00
2018-06-11T05:15:55.498Z,18.10
2018-06-11T05:18:24.799Z,18.10
2018-06-11T05:20:54.099Z,18.20
2018-06-11T05:23:23.348Z,18.30
2018-06-11T05:25:52.612Z,18.20
2018-06-11T05:28:21.912Z,18.20
2018-06-11T05:30:51.169Z,18.40
2018-06-11T05:33:20.566Z,18.40
2018-06-11T05:35:49.980Z,18.40
2018-06-11T05:38:19.312Z,18.20
2018-06-11T05:40:49.337Z,18.10
2018-06-11T05:43:18.824Z,18.30
2018-06-11T05:45:48.582Z,18.40
2018-06-11T05:48:18.313Z,18.20
2018-06-11T05:50:48.427Z,18.40
2018-06-11T05:53:17.683Z,18.40
2018-06-11T05:55:46.958Z,18.40
2018-06-11T05:58:16.324Z,18.60
2018-06-11T06:00:45.727Z,18.60
2018-06-11T06:03:15.262Z,18.60
2018-06-11T06:05:44.616Z,18.50
2018-06-11T06:08:13.902Z,18.50
2018-06-11T06:10:43.204Z,18.60
2018-06-11T06:15:41.297Z,18.80
2018-06-11T06:18:10.583Z,18.70
2018-06-11T06:23:08.759Z,19.10
2018-06-11T06:25:38.033Z,18.80
2018-06-11T06:28:07.330Z,18.80
2018-06-11T06:30:36.585Z,18.80
2018-06-11T06:33:05.891Z,18.70
2018-06-11T06:35:35.259Z,18.70
2018-06-11T06:38:05.896Z,19.20
2018-06-11T06:40:35.247Z,19.40
2018-06-11T06:43:05.821Z,19.50
2018-06-11T06:45:35.101Z,19.40
2018-06-11T06:48:04.865Z,19.40
2018-06-11T06:50:34.205Z,19.60
2018-06-11T06:53:03.542Z,19.80
2018-06-11T06:55:35.524Z,19.90
2018-06-11T06:58:05.342Z,20.20
2018-06-11T07:00:34.675Z,20.10
2018-06-11T07:03:04.006Z,20.00
2018-06-11T07:05:33.317Z,19.80
2018-06-11T07:08:02.711Z,19.70
2018-06-11T07:10:32.007Z,19.60
2018-06-11T07:13:01.342Z,19.80
2018-06-11T07:15:30.884Z,19.90
2018-06-11T07:18:00.313Z,20.10
2018-06-11T07:20:30.279Z,19.80
2018-06-11T07:22:59.560Z,19.90
2018-06-11T07:25:28.829Z,19.80
2018-06-11T07:27:58.115Z,19.60
2018-06-11T07:30:27.671Z,19.50
2018-06-11T07:35:25.901Z,19.70
2018-06-11T07:37:56.061Z,19.50
2018-06-11T07:40:25.490Z,19.40
2018-06-11T07:42:55.398Z,19.40
2018-06-11T07:45:24.691Z,19.50
2018-06-11T07:47:54.045Z,19.30
2018-06-11T07:50:23.416Z,19.30
2018-06-11T07:52:52.741Z,19.50
2018-06-11T07:55:22.202Z,19.10
2018-06-11T07:57:51.495Z,19.60
2018-06-11T08:00:20.943Z,19.50
2018-06-11T08:02:50.304Z,19.40
2018-06-11T08:05:20.383Z,19.50
2018-06-11T08:07:49.767Z,19.70
2018-06-11T08:10:19.138Z,19.80
2018-06-11T08:12:48.592Z,19.90
2018-06-11T08:15:17.928Z,19.70
2018-06-11T08:20:16.771Z,19.50
2018-06-11T08:22:46.081Z,19.70
2018-06-11T08:25:15.511Z,19.40
2018-06-11T08:27:44.907Z,19.40
2018-06-11T08:30:14.227Z,19.50
2018-06-11T08:32:43.607Z,19.40
2018-06-11T08:35:12.975Z,19.30
2018-06-11T08:37:42.354Z,19.30
2018-06-11T08:40:12.613Z,19.20
2018-06-11T08:42:42.136Z,19.40
2018-06-11T08:45:11.526Z,19.50
2018-06-11T08:47:40.831Z,19.40
2018-06-11T08:50:11.937Z,19.50
2018-06-11T08:52:41.177Z,19.70
2018-06-11T08:55:10.541Z,19.50
2018-06-11T08:57:39.791Z,19.50
2018-06-11T09:00:09.167Z,19.50
2018-06-11T09:02:38.549Z,19.50
2018-06-11T09:05:07.855Z,19.30
2018-06-11T09:07:37.185Z,19.30
2018-06-11T09:10:07.103Z,19.50
2018-06-11T09:12:36.394Z,19.60
2018-06-11T09:15:05.803Z,19.70
2018-06-11T09:17:35.387Z,19.70
2018-06-11T09:20:04.943Z,19.60
2018-06-11T09:22:34.325Z,19.90
2018-06-11T09:25:04.616Z,20.00
2018-06-11T09:27:34.160Z,20.50
2018-06-11T09:30:04.022Z,20.60
2018-06-11T09:32:35.050Z,20.40
2018-06-11T09:37:33.311Z,19.90
2018-06-11T09:40:02.669Z,19.90
2018-06-11T09:42:32.167Z,20.40
2018-06-11T09:45:01.588Z,20.70
2018-06-11T09:47:30.911Z,20.50
2018-06-11T09:52:29.103Z,21.20
2018-06-11T09:54:58.758Z,21.70
2018-06-11T09:57:28.064Z,21.80
2018-06-11T09:59:58.121Z,21.00
2018-06-11T10:02:27.524Z,20.50
2018-06-11T10:04:57.112Z,20.90
2018-06-11T10:07:26.399Z,20.70
2018-06-11T10:09:56.479Z,20.20
2018-06-11T10:12:26.963Z,20.20
2018-06-11T10:14:57.974Z,20.10
2018-06-11T10:17:27.495Z,20.10
2018-06-11T10:19:56.892Z,20.50
2018-06-11T10:22:26.282Z,20.80
2018-06-11T10:24:55.784Z,20.80
2018-06-11T10:27:25.080Z,21.00
2018-06-11T10:29:54.567Z,20.90
2018-06-11T10:32:23.954Z,20.90
2018-06-11T10:34:53.254Z,21.10
2018-06-11T10:37:22.617Z,21.20
2018-06-11T10:39:52.964Z,21.20
2018-06-11T10:42:22.376Z,21.20
2018-06-11T10:44:51.674Z,21.60
2018-06-11T10:47:22.214Z,21.30
2018-06-11T10:49:51.544Z,21.60
2018-06-11T10:54:49.715Z,21.90
2018-06-11T10:57:19.048Z,21.10
2018-06-11T10:59:48.367Z,21.40
2018-06-11T11:02:18.401Z,21.90
2018-06-11T11:04:47.478Z,21.60
2018-06-11T11:07:17.793Z,21.60
2018-06-11T11:09:47.149Z,21.50
2018-06-11T11:12:16.528Z,21.20
2018-06-11T11:14:45.985Z,21.30
2018-06-11T11:17:15.969Z,21.30
2018-06-11T11:19:45.277Z,20.90
2018-06-11T11:22:15.138Z,20.80
2018-06-11T11:24:44.459Z,21.00
2018-06-11T11:27:13.808Z,20.70
2018-06-11T11:32:11.952Z,20.70
2018-06-11T11:34:41.454Z,20.80
2018-06-11T11:37:10.718Z,21.00
2018-06-11T11:39:40.031Z,20.50
2018-06-11T11:42:09.359Z,20.50
2018-06-11T11:44:38.768Z,21.00
2018-06-11T11:47:08.177Z,21.40
2018-06-11T11:49:37.572Z,21.40
2018-06-11T11:52:07.985Z,20.90
2018-06-11T11:54:37.304Z,20.40
2018-06-11T11:57:06.660Z,20.90
2018-06-11T11:59:36.297Z,20.70
2018-06-11T12:02:06.468Z,21.20
2018-06-11T12:04:35.866Z,20.50
2018-06-11T12:07:05.863Z,20.70
2018-06-11T12:09:37.296Z,20.50
2018-06-11T12:12:07.657Z,20.50
2018-06-11T12:14:37.265Z,20.80
2018-06-11T12:17:06.916Z,21.00
2018-06-11T12:19:36.301Z,21.00
2018-06-11T12:22:06.367Z,20.90
2018-06-11T12:24:35.673Z,21.20
2018-06-11T12:27:05.049Z,21.00
2018-06-11T12:29:34.349Z,20.60
2018-06-11T12:32:03.618Z,20.50
2018-06-11T12:34:32.951Z,21.20
2018-06-11T12:37:02.364Z,21.40
2018-06-11T12:39:31.759Z,21.50
2018-06-11T12:42:01.649Z,21.30
2018-06-11T12:44:31.035Z,21.20
2018-06-11T12:47:00.361Z,21.10
2018-06-11T12:49:29.765Z,21.00
2018-06-11T12:51:59.016Z,21.30
2018-06-11T12:54:28.289Z,21.10
2018-06-11T13:01:55.339Z,20.70
2018-06-11T13:04:24.643Z,20.60
2018-06-11T13:06:54.034Z,20.70
2018-06-11T13:09:24.478Z,20.80
2018-06-11T13:11:54.331Z,21.10
2018-06-11T13:14:23.799Z,21.20
2018-06-11T13:16:53.379Z,21.40
2018-06-11T13:19:22.721Z,21.40
2018-06-11T13:21:52.089Z,21.20
2018-06-11T13:24:21.525Z,21.10
2018-06-11T13:26:50.998Z,21.20
2018-06-11T13:29:20.420Z,21.20
2018-06-11T13:31:49.764Z,21.20
2018-06-11T13:34:19.143Z,21.20
2018-06-11T13:36:48.404Z,20.70
2018-06-11T13:39:17.687Z,21.00
2018-06-11T13:41:47.138Z,20.70
2018-06-11T13:44:16.468Z,20.70
2018-06-11T13:46:45.809Z,20.80
2018-06-11T13:49:15.129Z,20.70
2018-06-11T13:51:44.425Z,20.70
2018-06-11T13:54:13.726Z,20.80
2018-06-11T13:56:43.051Z,20.60
2018-06-11T13:59:12.311Z,20.40
2018-06-11T14:01:41.696Z,20.50
2018-06-11T14:04:11.086Z,20.40
2018-06-11T14:06:40.377Z,20.40
2018-06-11T14:09:10.420Z,20.40
2018-06-11T14:11:39.712Z,20.50
2018-06-11T14:14:09.134Z,20.40
2018-06-11T14:16:38.442Z,20.50
2018-06-11T14:19:07.734Z,20.40
2018-06-11T14:21:37.052Z,20.30
2018-06-11T14:24:07.174Z,20.30
2018-06-11T14:26:36.549Z,20.20
2018-06-11T14:29:05.849Z,20.20
2018-06-11T14:31:35.267Z,19.90
2018-06-11T14:34:05.222Z,19.90
2018-06-11T14:39:03.996Z,19.90
2018-06-11T14:41:33.388Z,20.00
2018-06-11T14:44:03.744Z,19.80
2018-06-11T14:46:32.996Z,19.90
2018-06-11T14:49:02.598Z,19.80
2018-06-11T14:51:31.975Z,19.80
2018-06-11T14:54:02.112Z,19.80
2018-06-11T14:56:31.451Z,19.90
2018-06-11T14:59:00.827Z,19.90
2018-06-11T15:01:30.152Z,19.80
2018-06-11T15:03:59.466Z,19.80
2018-06-11T15:08:58.568Z,19.50
2018-06-11T15:11:28.036Z,19.20
2018-06-11T15:13:57.352Z,19.10
2018-06-11T15:16:26.816Z,19.10
2018-06-11T15:18:56.246Z,19.00
2018-06-11T15:21:25.707Z,19.00
2018-06-11T15:23:54.987Z,19.00
2018-06-11T15:26:24.346Z,18.80
2018-06-11T15:28:53.966Z,18.80
2018-06-11T15:31:23.264Z,18.80
2018-06-11T15:33:52.605Z,18.80
2018-06-11T15:36:21.918Z,18.80
2018-06-11T15:38:51.374Z,18.90
2018-06-11T15:41:20.720Z,18.90
2018-06-11T15:43:50.039Z,18.90
2018-06-11T15:46:19.353Z,18.80
2018-06-11T15:51:17.520Z,18.80
2018-06-11T15:53:46.990Z,18.70
2018-06-11T15:56:16.458Z,18.70
2018-06-11T15:58:45.859Z,18.70
2018-06-11T16:01:15.153Z,18.80
2018-06-11T16:03:44.532Z,18.80
2018-06-11T16:06:13.881Z,18.70
2018-06-11T16:08:43.312Z,18.70
2018-06-11T16:11:12.726Z,18.70
2018-06-11T16:13:42.105Z,18.80
2018-06-11T16:16:11.442Z,18.90
2018-06-11T16:18:40.697Z,18.80
2018-06-11T16:21:10.017Z,18.80
2018-06-11T16:23:39.327Z,18.80
2018-06-11T16:26:08.590Z,19.00
2018-06-11T16:28:37.857Z,19.00
2018-06-11T16:31:07.230Z,19.00
2018-06-11T16:33:36.537Z,19.00
2018-06-11T16:36:06.023Z,18.90
2018-06-11T16:38:35.499Z,19.10
2018-06-11T16:41:04.916Z,19.10
2018-06-11T16:43:34.224Z,19.10
2018-06-11T16:46:03.526Z,19.20
2018-06-11T16:51:01.651Z,19.00
2018-06-11T16:53:30.909Z,19.00
2018-06-11T16:56:00.235Z,19.10
2018-06-11T16:58:29.521Z,19.10
2018-06-11T17:00:58.910Z,19.00
2018-06-11T17:03:28.202Z,19.00
2018-06-11T17:05:57.519Z,19.00
2018-06-11T17:08:26.797Z,19.10
2018-06-11T17:10:56.562Z,19.10
2018-06-11T17:13:26.005Z,19.00
2018-06-11T17:15:55.289Z,19.10
2018-06-11T17:18:25.348Z,19.20
2018-06-11T17:20:54.643Z,19.20
2018-06-11T17:23:23.939Z,19.20
2018-06-11T17:25:53.324Z,19.20
2018-06-11T17:28:22.756Z,19.20
2018-06-11T17:30:52.737Z,19.20
2018-06-11T17:33:21.998Z,19.20
2018-06-11T17:35:51.363Z,19.10
2018-06-11T17:38:20.730Z,19.00
2018-06-11T17:40:50.189Z,19.00
2018-06-11T17:43:19.586Z,19.00
2018-06-11T17:45:48.905Z,19.00
2018-06-11T17:48:18.275Z,18.90
2018-06-11T17:50:47.623Z,18.90
2018-06-11T17:53:16.973Z,18.90
2018-06-11T17:55:46.371Z,18.90
2018-06-11T17:58:15.637Z,18.80
2018-06-11T18:00:44.959Z,18.80
2018-06-11T18:03:14.291Z,18.80
2018-06-11T18:05:44.555Z,18.80
2018-06-11T18:08:13.859Z,18.70
2018-06-11T18:10:43.185Z,18.80
2018-06-11T18:13:12.478Z,18.70
2018-06-11T18:15:41.750Z,18.70
2018-06-11T18:18:11.017Z,18.70
2018-06-11T18:20:40.394Z,18.80
2018-06-11T18:23:09.648Z,18.80
2018-06-11T18:25:38.979Z,18.80
2018-06-11T18:28:08.460Z,18.70
2018-06-11T18:33:06.630Z,18.70
2018-06-11T18:35:36.010Z,18.70
2018-06-11T18:38:05.323Z,18.60
2018-06-11T18:40:35.717Z,18.70
2018-06-11T18:43:05.010Z,18.70
2018-06-11T18:45:34.359Z,18.60
2018-06-11T18:48:03.833Z,18.50
2018-06-11T18:50:33.084Z,18.50
2018-06-11T18:53:02.335Z,18.40
2018-06-11T18:55:31.605Z,18.40
2018-06-11T18:58:00.932Z,18.30
2018-06-11T19:00:30.197Z,18.20
2018-06-11T19:02:59.451Z,18.20
2018-06-11T19:05:28.743Z,18.10
2018-06-11T19:07:58.009Z,18.10
2018-06-11T19:10:27.266Z,18.00
2018-06-11T19:12:56.525Z,17.90
2018-06-11T19:15:25.832Z,17.90
2018-06-11T19:17:55.138Z,17.80
2018-06-11T19:20:24.389Z,17.80
2018-06-11T19:22:53.679Z,17.70
2018-06-11T19:25:23.107Z,17.70
2018-06-11T19:27:52.383Z,17.60
2018-06-11T19:32:50.419Z,17.60
2018-06-11T19:35:19.695Z,17.50
2018-06-11T19:37:48.936Z,17.50
2018-06-11T19:40:19.238Z,17.40
2018-06-11T19:42:48.501Z,17.40
2018-06-11T19:45:17.781Z,17.40
2018-06-11T19:47:47.034Z,17.40
2018-06-11T19:50:16.403Z,17.40
2018-06-11T19:52:45.570Z,17.30
2018-06-11T19:55:14.872Z,17.20
2018-06-11T19:57:44.168Z,17.20
2018-06-11T20:02:42.249Z,17.10
2018-06-11T20:05:11.545Z,17.00
2018-06-11T20:07:40.824Z,17.00
2018-06-11T20:10:13.057Z,16.90
2018-06-11T20:12:43.104Z,16.90
2018-06-11T20:15:12.404Z,16.90
2018-06-11T20:17:41.724Z,16.90
2018-06-11T20:20:11.017Z,17.00
2018-06-11T20:22:40.256Z,17.00
2018-06-11T20:25:09.577Z,16.90
2018-06-11T20:27:38.988Z,16.80
2018-06-11T20:30:08.314Z,16.80
2018-06-11T20:32:37.627Z,16.80
2018-06-11T20:35:07.022Z,16.80
2018-06-11T20:37:36.299Z,16.80
2018-06-11T20:40:05.676Z,16.90
2018-06-11T20:45:04.536Z,16.90
2018-06-11T20:47:34.581Z,16.90
2018-06-11T20:50:03.967Z,16.90
2018-06-11T20:52:33.257Z,16.80
2018-06-11T20:55:02.606Z,16.80
2018-06-11T20:57:31.905Z,16.80
2018-06-11T21:00:01.233Z,16.80
2018-06-11T21:02:30.618Z,16.80
2018-06-11T21:05:00.046Z,16.80
2018-06-11T21:07:29.313Z,17.00
2018-06-11T21:09:58.617Z,16.80
2018-06-11T21:12:27.929Z,16.80
2018-06-11T21:14:57.165Z,16.70
2018-06-11T21:17:26.463Z,16.80
2018-06-11T21:19:55.773Z,16.70
2018-06-11T21:22:25.013Z,16.80
2018-06-11T21:24:54.314Z,16.80
2018-06-11T21:27:23.547Z,16.90
2018-06-11T21:29:52.852Z,16.90
2018-06-11T21:32:22.294Z,16.80
2018-06-11T21:34:51.597Z,16.80
2018-06-11T21:37:21.361Z,16.80
2018-06-11T21:39:51.418Z,16.90
2018-06-11T21:42:20.742Z,16.90
2018-06-11T21:44:49.998Z,16.80
2018-06-11T21:47:19.357Z,16.80
2018-06-11T21:49:48.653Z,16.90
2018-06-11T21:52:17.911Z,16.80
2018-06-11T21:54:48.251Z,16.90
2018-06-11T21:57:17.510Z,17.00
2018-06-11T21:59:46.760Z,16.90
2018-06-11T22:02:16.152Z,16.90
2018-06-11T22:04:45.480Z,16.90
2018-06-11T22:07:14.829Z,17.00
2018-06-11T22:09:44.153Z,16.90
2018-06-11T22:12:13.422Z,16.90
2018-06-11T22:14:42.709Z,16.80
2018-06-11T22:17:12.011Z,16.80
2018-06-11T22:19:41.294Z,16.70
2018-06-11T22:22:10.555Z,16.70
2018-06-11T22:24:39.852Z,16.70
2018-06-11T22:27:09.160Z,16.70
2018-06-11T22:29:38.557Z,16.70
2018-06-11T22:32:07.855Z,16.70
2018-06-11T22:34:37.351Z,16.70
2018-06-11T22:37:06.666Z,16.70
2018-06-11T22:39:35.986Z,16.70
2018-06-11T22:42:05.390Z,16.70
2018-06-11T22:44:34.643Z,16.70
2018-06-11T22:47:04.269Z,16.80
2018-06-11T22:52:02.481Z,16.90
2018-06-11T22:54:31.761Z,16.90
2018-06-11T22:57:01.005Z,17.00
2018-06-11T22:59:30.411Z,17.00
2018-06-11T23:01:59.729Z,17.00
2018-06-11T23:04:29.167Z,17.00
2018-06-11T23:09:27.392Z,16.90
2018-06-11T23:11:56.816Z,16.80
2018-06-11T23:14:26.100Z,16.90
2018-06-11T23:16:55.496Z,16.80
2018-06-11T23:19:24.791Z,16.80
2018-06-11T23:21:54.152Z,16.80
2018-06-11T23:24:23.421Z,16.90
2018-06-11T23:26:52.733Z,16.90
2018-06-11T23:29:22.104Z,16.90
2018-06-11T23:31:51.439Z,16.90
2018-06-11T23:34:20.865Z,16.90
2018-06-11T23:36:50.198Z,16.90
2018-06-11T23:39:19.675Z,17.00
2018-06-11T23:44:18.284Z,17.00
2018-06-11T23:49:16.408Z,17.00
2018-06-11T23:51:46.502Z,17.00
2018-06-11T23:54:15.889Z,17.00
2018-06-11T23:56:45.152Z,17.00
2018-06-11T23:59:14.407Z,17.00
